createdAt,value
2023-02-17T00:01:22.636Z,39.23
2023-02-17T00:03:51.519Z,41.20
2023-02-17T00:06:21.160Z,40.93
2023-02-17T00:08:48.254Z,37.03
2023-02-17T00:11:15.118Z,37.27
2023-02-17T00:13:42.420Z,36.40
2023-02-17T00:16:11.289Z,39.13
2023-02-17T00:18:37.782Z,36.63
2023-02-17T00:21:12.733Z,35.17
2023-02-17T00:23:39.145Z,37.07
2023-02-17T00:26:06.989Z,39.20
2023-02-17T00:28:34.364Z,36.40
2023-02-17T00:31:16.114Z,35.80
2023-02-17T00:33:42.794Z,37.17
2023-02-17T00:36:12.858Z,38.87
2023-02-17T00:38:39.605Z,38.93
2023-02-17T00:41:06.077Z,37.67
2023-02-17T00:43:32.550Z,40.03
2023-02-17T00:45:59.064Z,37.00
2023-02-17T00:48:25.814Z,39.47
2023-02-17T00:50:52.298Z,38.50
2023-02-17T00:53:18.971Z,36.23
2023-02-17T00:55:45.516Z,37.30
2023-02-17T00:58:12.198Z,36.33
2023-02-17T01:00:38.711Z,40.07
2023-02-17T01:03:05.147Z,39.47
2023-02-17T01:05:31.880Z,40.40
2023-02-17T01:07:58.393Z,36.63
2023-02-17T01:10:24.851Z,36.63
2023-02-17T01:12:51.672Z,36.90
2023-02-17T01:15:21.296Z,37.37
2023-02-17T01:17:49.612Z,38.47
2023-02-17T01:20:16.253Z,39.53
2023-02-17T01:22:42.697Z,40.47
2023-02-17T01:25:09.143Z,36.00
2023-02-17T01:27:35.978Z,37.97
2023-02-17T01:30:02.581Z,37.40
2023-02-17T01:32:29.383Z,40.33
2023-02-17T01:34:55.980Z,38.90
2023-02-17T01:37:22.555Z,37.10
2023-02-17T01:39:49.401Z,40.80
2023-02-17T01:42:17.626Z,37.43
2023-02-17T01:45:18.356Z,38.03
2023-02-17T01:47:56.374Z,39.77
2023-02-17T01:50:28.219Z,39.73
2023-02-17T01:52:58.076Z,37.97
2023-02-17T01:55:25.953Z,38.80
2023-02-17T01:57:57.509Z,38.47
2023-02-17T02:00:27.801Z,39.77
2023-02-17T02:02:54.870Z,38.93
2023-02-17T02:05:22.039Z,41.13
2023-02-17T02:07:50.350Z,41.27
2023-02-17T02:10:19.619Z,39.37
2023-02-17T02:12:46.412Z,39.93
2023-02-17T02:15:16.236Z,41.23
2023-02-17T02:17:52.456Z,40.20
2023-02-17T02:20:26.044Z,37.50
2023-02-17T02:23:07.738Z,40.83
2023-02-17T02:25:40.240Z,41.47
2023-02-17T02:28:28.579Z,41.83
2023-02-17T02:31:29.212Z,40.07
2023-02-17T02:34:07.801Z,38.70
2023-02-17T02:36:58.564Z,39.03
2023-02-17T02:39:32.586Z,41.10
2023-02-17T02:42:04.865Z,42.27
2023-02-17T02:44:31.520Z,41.13
2023-02-17T02:47:26.107Z,39.80
2023-02-17T02:49:53.089Z,39.90
2023-02-17T02:52:29.671Z,41.60
2023-02-17T02:55:06.286Z,40.07
2023-02-17T02:58:02.265Z,39.63
2023-02-17T03:00:53.935Z,36.97
2023-02-17T03:04:07.300Z,39.67
2023-02-17T03:06:44.803Z,38.37
2023-02-17T03:09:14.716Z,39.27
2023-02-17T03:11:41.999Z,38.83
2023-02-17T03:14:14.934Z,35.80
2023-02-17T03:16:42.753Z,36.73
2023-02-17T03:19:10.628Z,38.27
2023-02-17T03:21:44.891Z,38.13
2023-02-17T03:24:11.349Z,35.87
2023-02-17T03:26:37.843Z,36.40
2023-02-17T03:29:04.331Z,36.47
2023-02-17T03:31:31.318Z,36.10
2023-02-17T03:33:58.631Z,37.97
2023-02-17T03:36:25.096Z,35.47
2023-02-17T03:38:51.801Z,34.60
2023-02-17T03:41:18.346Z,34.33
2023-02-17T03:43:44.775Z,34.23
2023-02-17T03:46:12.727Z,34.30
2023-02-17T03:48:40.078Z,33.23
2023-02-17T03:51:13.220Z,38.30
2023-02-17T03:53:40.030Z,35.23
2023-02-17T03:56:06.926Z,35.70
2023-02-17T03:58:34.252Z,35.33
2023-02-17T04:01:01.092Z,36.67
2023-02-17T04:03:27.609Z,37.37
2023-02-17T04:05:54.569Z,32.93
2023-02-17T04:08:22.102Z,37.07
2023-02-17T04:10:56.694Z,34.87
2023-02-17T04:13:24.002Z,33.83
2023-02-17T04:15:51.134Z,36.70
2023-02-17T04:18:18.674Z,35.23
2023-02-17T04:20:47.350Z,33.20
2023-02-17T04:23:14.523Z,34.93
2023-02-17T04:25:41.348Z,33.47
2023-02-17T04:28:10.005Z,29.47
2023-02-17T04:30:36.467Z,34.07
2023-02-17T04:33:03.841Z,34.60
2023-02-17T04:35:30.525Z,31.37
2023-02-17T04:37:56.991Z,33.30
2023-02-17T04:40:23.597Z,33.33
2023-02-17T04:42:50.164Z,31.63
2023-02-17T04:45:16.923Z,31.63
2023-02-17T04:47:43.345Z,32.47
2023-02-17T04:50:10.660Z,33.30
2023-02-17T04:52:37.086Z,30.97
2023-02-17T04:55:04.927Z,30.63
2023-02-17T04:57:31.406Z,30.60
2023-02-17T04:59:57.817Z,30.17
2023-02-17T05:02:26.845Z,30.13
2023-02-17T05:04:54.011Z,35.03
2023-02-17T05:07:21.110Z,34.40
2023-02-17T05:09:47.838Z,31.57
2023-02-17T05:12:14.656Z,32.63
2023-02-17T05:14:41.051Z,33.73
2023-02-17T05:17:07.489Z,30.43
2023-02-17T05:19:34.045Z,31.87
2023-02-17T05:22:00.454Z,31.13
2023-02-17T05:24:27.218Z,31.47
2023-02-17T05:26:53.872Z,34.03
2023-02-17T05:29:20.438Z,32.43
2023-02-17T05:31:47.208Z,30.43
2023-02-17T05:34:13.734Z,29.20
2023-02-17T05:36:40.219Z,32.43
2023-02-17T05:39:06.718Z,29.30
2023-02-17T05:41:33.176Z,32.43
2023-02-17T05:43:59.572Z,30.23
2023-02-17T05:46:26.172Z,29.87
2023-02-17T05:48:52.701Z,29.50
2023-02-17T05:51:19.490Z,30.93
2023-02-17T05:53:46.109Z,31.77
2023-02-17T05:56:12.480Z,33.00
2023-02-17T05:58:38.930Z,30.50
2023-02-17T06:01:09.774Z,29.90
2023-02-17T06:03:36.217Z,30.47
2023-02-17T06:06:02.850Z,31.10
2023-02-17T06:08:29.257Z,32.27
2023-02-17T06:10:56.005Z,30.20
2023-02-17T06:13:22.479Z,28.87
2023-02-17T06:15:49.411Z,32.27
2023-02-17T06:18:16.131Z,29.53
2023-02-17T06:20:42.587Z,28.17
2023-02-17T06:23:08.971Z,31.00
2023-02-17T06:25:35.823Z,28.73
2023-02-17T06:28:02.303Z,30.23
2023-02-17T06:30:28.843Z,31.10
2023-02-17T06:32:55.329Z,31.90
2023-02-17T06:35:22.020Z,30.97
2023-02-17T06:37:48.628Z,32.93
2023-02-17T06:40:15.670Z,33.90
2023-02-17T06:42:42.115Z,31.80
2023-02-17T06:45:09.039Z,29.03
2023-02-17T06:47:35.683Z,33.77
2023-02-17T06:50:04.839Z,28.20
2023-02-17T06:52:32.029Z,28.00
2023-02-17T06:54:58.668Z,27.23
2023-02-17T06:57:25.101Z,27.37
2023-02-17T06:59:51.709Z,29.17
2023-02-17T07:02:18.300Z,27.47
2023-02-17T07:04:44.823Z,29.63
2023-02-17T07:07:11.869Z,26.90
2023-02-17T07:09:39.147Z,27.90
2023-02-17T07:12:06.307Z,26.47
2023-02-17T07:14:34.283Z,28.63
2023-02-17T07:17:01.899Z,27.57
2023-02-17T07:19:28.309Z,30.77
2023-02-17T07:21:54.743Z,30.23
2023-02-17T07:24:21.261Z,30.80
2023-02-17T07:26:48.624Z,27.20
2023-02-17T07:29:15.008Z,26.77
2023-02-17T07:31:41.559Z,26.70
2023-02-17T07:34:08.049Z,25.50
2023-02-17T07:36:34.721Z,28.63
2023-02-17T07:39:04.396Z,30.20
2023-02-17T07:41:33.495Z,31.97
2023-02-17T07:44:07.740Z,30.43
2023-02-17T07:46:34.240Z,31.00
2023-02-17T07:49:00.669Z,31.37
2023-02-17T07:51:27.991Z,31.23
2023-02-17T07:53:55.061Z,30.80
2023-02-17T07:56:22.322Z,30.23
2023-02-17T07:58:49.004Z,29.03
2023-02-17T08:01:18.356Z,28.53
2023-02-17T08:03:46.088Z,30.90
2023-02-17T08:06:18.583Z,28.73
2023-02-17T08:09:04.188Z,31.53
2023-02-17T08:11:50.108Z,32.20
2023-02-17T08:14:16.822Z,34.70
2023-02-17T08:16:43.485Z,33.83
2023-02-17T08:19:10.022Z,34.70
2023-02-17T08:21:36.524Z,33.93
2023-02-17T08:24:03.172Z,36.13
2023-02-17T08:26:29.736Z,34.73
2023-02-17T08:28:56.395Z,35.57
2023-02-17T08:31:26.307Z,34.07
2023-02-17T08:33:53.394Z,36.50
2023-02-17T08:36:22.168Z,32.83
2023-02-17T08:38:51.268Z,35.77
2023-02-17T08:41:17.661Z,33.10
2023-02-17T08:43:44.223Z,33.00
2023-02-17T08:46:11.951Z,32.17
2023-02-17T08:48:40.332Z,32.30
2023-02-17T08:51:07.309Z,30.83
2023-02-17T08:53:34.592Z,32.77
2023-02-17T08:56:01.148Z,32.30
2023-02-17T08:58:27.575Z,33.47
2023-02-17T09:00:54.145Z,30.67
2023-02-17T09:03:21.163Z,28.60
2023-02-17T09:05:49.944Z,27.33
2023-02-17T09:08:16.912Z,28.87
2023-02-17T09:10:43.435Z,29.20
2023-02-17T09:13:09.935Z,29.23
2023-02-17T09:15:36.409Z,27.23
2023-02-17T09:18:02.909Z,27.00
2023-02-17T09:20:29.546Z,25.70
2023-02-17T09:22:56.271Z,26.87
2023-02-17T09:25:22.942Z,26.97
2023-02-17T09:27:49.911Z,24.10
2023-02-17T09:30:16.765Z,28.53
2023-02-17T09:32:44.175Z,27.27
2023-02-17T09:35:15.620Z,27.83
2023-02-17T09:37:42.299Z,27.43
2023-02-17T09:40:15.324Z,26.60
2023-02-17T09:42:41.840Z,28.77
2023-02-17T09:45:19.034Z,26.63
2023-02-17T09:47:54.950Z,30.73
2023-02-17T09:50:44.002Z,28.43
2023-02-17T09:53:34.437Z,30.93
2023-02-17T09:56:05.658Z,33.50
2023-02-17T09:58:50.375Z,31.83
2023-02-17T10:01:23.945Z,30.07
2023-02-17T10:03:56.173Z,34.70
2023-02-17T10:06:28.491Z,34.30
2023-02-17T10:09:32.036Z,32.30
2023-02-17T10:12:21.400Z,33.87
2023-02-17T10:14:56.741Z,34.40
2023-02-17T10:17:37.709Z,36.27
2023-02-17T10:20:12.417Z,39.23
2023-02-17T10:22:42.468Z,37.97
2023-02-17T10:25:46.489Z,35.57
2023-02-17T10:28:38.090Z,36.50
2023-02-17T10:31:15.176Z,34.53
2023-02-17T10:33:53.028Z,37.57
2023-02-17T10:36:28.882Z,39.70
2023-02-17T10:39:11.967Z,36.97
2023-02-17T10:41:40.172Z,37.60
2023-02-17T10:44:19.879Z,38.23
2023-02-17T10:46:48.857Z,38.77
2023-02-17T10:49:32.297Z,36.40
2023-02-17T10:52:10.604Z,33.63
2023-02-17T10:54:49.118Z,34.43
2023-02-17T10:57:19.537Z,31.77
2023-02-17T10:59:48.998Z,33.20
2023-02-17T11:02:37.875Z,34.23
2023-02-17T11:05:04.831Z,28.57
2023-02-17T11:07:45.112Z,27.27
2023-02-17T11:10:22.996Z,26.77
2023-02-17T11:12:55.830Z,28.07
2023-02-17T11:15:27.073Z,26.10
2023-02-17T11:17:54.478Z,29.63
2023-02-17T11:20:21.433Z,25.47
2023-02-17T11:23:02.763Z,22.60
2023-02-17T11:25:34.556Z,22.60
2023-02-17T11:28:03.584Z,23.10
2023-02-17T11:30:32.536Z,20.50
2023-02-17T11:32:59.022Z,20.97
2023-02-17T11:35:46.088Z,18.73
2023-02-17T11:38:18.945Z,21.67
2023-02-17T11:40:59.601Z,17.70
2023-02-17T11:43:30.570Z,19.60
2023-02-17T11:46:38.714Z,18.93
2023-02-17T11:49:33.885Z,20.37
2023-02-17T11:52:19.077Z,18.00
2023-02-17T11:55:00.834Z,16.00
2023-02-17T11:58:01.981Z,17.20
2023-02-17T12:00:54.374Z,17.40
2023-02-17T12:03:48.222Z,17.60
2023-02-17T12:06:24.093Z,15.03
2023-02-17T12:09:20.475Z,15.57
2023-02-17T12:12:01.513Z,16.03
2023-02-17T12:15:03.227Z,15.37
2023-02-17T12:17:42.242Z,13.50
2023-02-17T12:20:31.666Z,14.43
2023-02-17T12:23:09.389Z,11.57
2023-02-17T12:25:49.770Z,13.17
2023-02-17T12:28:54.090Z,12.70
2023-02-17T12:31:41.995Z,14.80
2023-02-17T12:34:43.832Z,13.73
2023-02-17T12:37:21.447Z,14.30
2023-02-17T12:40:03.355Z,14.13
2023-02-17T12:42:41.191Z,14.17
2023-02-17T12:45:39.433Z,14.07
2023-02-17T12:48:14.831Z,13.20
2023-02-17T12:50:56.558Z,13.77
2023-02-17T12:53:42.081Z,12.43
2023-02-17T12:56:33.616Z,12.90
2023-02-17T12:59:12.664Z,12.67
2023-02-17T13:01:48.947Z,13.40
2023-02-17T13:04:18.313Z,16.00
2023-02-17T13:06:53.140Z,13.70
2023-02-17T13:09:34.498Z,14.77
2023-02-17T13:12:27.305Z,15.50
2023-02-17T13:14:55.224Z,14.47
2023-02-17T13:17:37.728Z,15.37
2023-02-17T13:20:07.384Z,15.07
2023-02-17T13:22:34.605Z,14.10
2023-02-17T13:25:02.603Z,17.03
2023-02-17T13:27:29.042Z,18.00
2023-02-17T13:30:21.729Z,18.83
2023-02-17T13:33:00.284Z,16.77
2023-02-17T13:35:27.883Z,18.43
2023-02-17T13:37:55.012Z,17.73
2023-02-17T13:40:24.604Z,15.30
2023-02-17T13:42:54.018Z,15.70
2023-02-17T13:45:27.431Z,16.83
2023-02-17T13:47:59.258Z,17.17
2023-02-17T13:50:35.993Z,18.10
2023-02-17T13:53:21.016Z,17.67
2023-02-17T13:55:47.796Z,18.63
2023-02-17T13:58:14.292Z,18.80
2023-02-17T14:00:43.378Z,18.00
2023-02-17T14:03:41.565Z,19.70
2023-02-17T14:06:13.827Z,19.13
2023-02-17T14:08:42.921Z,18.23
2023-02-17T14:11:18.207Z,18.77
2023-02-17T14:13:47.703Z,19.63
2023-02-17T14:16:31.376Z,18.40
2023-02-17T14:19:18.216Z,18.63
2023-02-17T14:22:02.518Z,18.90
2023-02-17T14:24:37.329Z,18.53
2023-02-17T14:27:09.164Z,16.30
2023-02-17T14:29:44.858Z,17.47
2023-02-17T14:32:50.076Z,15.53
2023-02-17T14:35:23.469Z,14.57
2023-02-17T14:37:52.954Z,13.20
2023-02-17T14:40:24.777Z,12.03
2023-02-17T14:42:51.878Z,11.20
2023-02-17T14:45:19.442Z,14.43
2023-02-17T14:47:46.434Z,14.13
2023-02-17T14:50:13.456Z,11.80
2023-02-17T14:52:49.290Z,11.03
2023-02-17T14:55:38.901Z,11.17
2023-02-17T14:58:05.857Z,9.93
2023-02-17T15:00:32.251Z,8.33
2023-02-17T15:03:00.450Z,8.80
2023-02-17T15:05:28.144Z,8.20
2023-02-17T15:07:54.588Z,7.27
2023-02-17T15:10:26.737Z,9.43
2023-02-17T15:12:54.317Z,10.73
2023-02-17T15:15:21.923Z,8.80
2023-02-17T15:17:48.572Z,8.97
2023-02-17T15:20:16.518Z,9.67
2023-02-17T15:22:44.304Z,8.30
2023-02-17T15:25:17.346Z,9.77
2023-02-17T15:27:44.089Z,8.90
2023-02-17T15:30:13.736Z,8.57
2023-02-17T15:32:41.017Z,9.30
2023-02-17T15:35:17.849Z,9.93
2023-02-17T15:37:44.457Z,7.97
2023-02-17T15:40:19.190Z,8.97
2023-02-17T15:42:50.199Z,9.33
2023-02-17T15:45:19.152Z,11.20
2023-02-17T15:47:50.527Z,8.23
2023-02-17T15:50:23.027Z,10.03
2023-02-17T15:52:50.618Z,10.50
2023-02-17T15:55:21.401Z,10.63
2023-02-17T15:57:50.954Z,9.83
2023-02-17T16:00:21.649Z,11.13
2023-02-17T16:02:48.120Z,10.50
2023-02-17T16:05:16.647Z,10.87
2023-02-17T16:07:43.652Z,10.80
2023-02-17T16:10:13.667Z,12.47
2023-02-17T16:12:40.228Z,10.20
2023-02-17T16:15:13.070Z,8.77
2023-02-17T16:17:39.665Z,12.73
2023-02-17T16:20:13.415Z,10.47
2023-02-17T16:22:39.930Z,12.80
2023-02-17T16:25:06.608Z,11.07
2023-02-17T16:27:33.159Z,12.80
2023-02-17T16:30:00.926Z,12.17
2023-02-17T16:32:27.519Z,13.43
2023-02-17T16:34:54.165Z,12.63
2023-02-17T16:37:20.631Z,17.03
2023-02-17T16:39:47.068Z,12.03
2023-02-17T16:42:15.448Z,13.40
2023-02-17T16:44:42.274Z,11.33
2023-02-17T16:47:18.501Z,14.60
2023-02-17T16:49:47.479Z,13.47
2023-02-17T16:52:24.300Z,13.27
2023-02-17T16:54:51.291Z,12.10
2023-02-17T16:57:19.574Z,11.10
2023-02-17T16:59:47.069Z,13.53
2023-02-17T17:02:13.883Z,11.70
2023-02-17T17:04:40.317Z,11.93
2023-02-17T17:07:07.824Z,10.83
2023-02-17T17:09:34.778Z,13.27
2023-02-17T17:12:01.348Z,11.27
2023-02-17T17:14:27.725Z,14.23
2023-02-17T17:17:01.499Z,11.43
2023-02-17T17:19:28.000Z,13.23
2023-02-17T17:21:54.499Z,9.90
2023-02-17T17:24:21.781Z,11.17
2023-02-17T17:26:50.364Z,11.03
2023-02-17T17:29:18.802Z,10.83
2023-02-17T17:31:45.568Z,9.57
2023-02-17T17:34:12.198Z,9.73
2023-02-17T17:36:43.948Z,12.60
2023-02-17T17:39:22.741Z,11.10
2023-02-17T17:41:50.581Z,11.70
2023-02-17T17:44:17.233Z,14.07
2023-02-17T17:46:44.132Z,11.93
2023-02-17T17:49:13.575Z,11.23
2023-02-17T17:51:40.844Z,14.90
2023-02-17T17:54:07.875Z,14.67
2023-02-17T17:56:37.625Z,12.60
2023-02-17T17:59:05.192Z,10.47
2023-02-17T18:01:32.022Z,8.80
2023-02-17T18:04:00.134Z,12.47
2023-02-17T18:06:43.027Z,10.73
2023-02-17T18:09:30.643Z,9.00
2023-02-17T18:12:01.348Z,7.47
2023-02-17T18:14:28.506Z,10.10
2023-02-17T18:16:54.885Z,12.03
2023-02-17T18:19:22.443Z,9.87
2023-02-17T18:21:49.518Z,7.27
2023-02-17T18:24:15.929Z,10.43
2023-02-17T18:26:42.442Z,9.53
2023-02-17T18:29:08.920Z,8.33
2023-02-17T18:31:36.217Z,4.13
2023-02-17T18:34:03.817Z,8.63
2023-02-17T18:36:30.772Z,6.97
2023-02-17T18:38:57.189Z,8.97
2023-02-17T18:41:32.124Z,8.43
2023-02-17T18:43:59.992Z,7.13
2023-02-17T18:46:29.051Z,7.70
2023-02-17T18:48:56.302Z,8.47
2023-02-17T18:51:24.311Z,7.73
2023-02-17T18:53:51.420Z,9.53
2023-02-17T18:56:20.997Z,10.63
2023-02-17T18:58:49.658Z,10.80
2023-02-17T19:01:20.635Z,8.57
2023-02-17T19:03:47.276Z,10.83
2023-02-17T19:06:17.540Z,12.10
2023-02-17T19:08:44.758Z,11.63
2023-02-17T19:11:11.758Z,10.17
2023-02-17T19:13:38.516Z,8.90
2023-02-17T19:16:16.698Z,7.73
2023-02-17T19:18:44.123Z,6.70
2023-02-17T19:21:10.955Z,10.80
2023-02-17T19:23:38.105Z,10.27
2023-02-17T19:26:07.067Z,11.23
2023-02-17T19:28:34.845Z,9.33
2023-02-17T19:31:04.079Z,11.03
2023-02-17T19:33:30.547Z,8.17
2023-02-17T19:35:57.128Z,8.30
2023-02-17T19:38:23.707Z,11.60
2023-02-17T19:40:50.540Z,7.27
2023-02-17T19:43:17.095Z,10.57
2023-02-17T19:45:46.405Z,11.03
2023-02-17T19:48:12.877Z,7.33
2023-02-17T19:50:39.268Z,9.50
2023-02-17T19:53:05.685Z,8.77
2023-02-17T19:55:32.108Z,7.10
2023-02-17T19:57:58.624Z,10.47
2023-02-17T20:00:25.091Z,12.00
2023-02-17T20:02:51.740Z,13.13
2023-02-17T20:05:18.306Z,9.90
2023-02-17T20:07:45.689Z,9.83
2023-02-17T20:10:12.510Z,7.53
2023-02-17T20:12:38.964Z,7.13
2023-02-17T20:15:06.440Z,8.10
2023-02-17T20:17:32.960Z,6.20
2023-02-17T20:19:59.606Z,12.00
2023-02-17T20:22:26.242Z,7.40
2023-02-17T20:24:52.969Z,8.83
2023-02-17T20:27:19.455Z,9.90
2023-02-17T20:29:45.887Z,7.90
2023-02-17T20:32:12.462Z,9.07
2023-02-17T20:34:39.488Z,8.93
2023-02-17T20:37:06.740Z,8.93
2023-02-17T20:39:35.364Z,9.63
2023-02-17T20:42:02.873Z,7.30
2023-02-17T20:44:29.318Z,7.90
2023-02-17T20:46:56.963Z,10.00
2023-02-17T20:49:23.839Z,10.00
2023-02-17T20:51:51.159Z,9.83
2023-02-17T20:54:18.058Z,8.90
2023-02-17T20:56:46.518Z,8.20
2023-02-17T20:59:13.727Z,7.87
2023-02-17T21:01:41.611Z,11.83
2023-02-17T21:04:08.923Z,10.00
2023-02-17T21:06:41.238Z,8.03
2023-02-17T21:09:13.534Z,10.60
2023-02-17T21:11:40.698Z,8.50
2023-02-17T21:14:07.518Z,7.00
2023-02-17T21:16:34.068Z,8.70
2023-02-17T21:19:00.867Z,7.93
2023-02-17T21:21:28.151Z,8.97
2023-02-17T21:23:55.912Z,8.07
2023-02-17T21:26:23.004Z,8.97
2023-02-17T21:28:49.812Z,10.53
2023-02-17T21:31:17.233Z,8.37
2023-02-17T21:33:44.180Z,9.03
2023-02-17T21:36:12.917Z,10.37
2023-02-17T21:38:40.025Z,12.60
2023-02-17T21:41:11.445Z,8.67
2023-02-17T21:43:57.982Z,8.33
2023-02-17T21:46:25.209Z,8.53
2023-02-17T21:48:53.307Z,10.53
2023-02-17T21:51:20.551Z,8.83
2023-02-17T21:53:47.315Z,14.17
2023-02-17T21:56:14.680Z,10.30
2023-02-17T21:58:45.888Z,8.83
2023-02-17T22:01:12.721Z,7.77
2023-02-17T22:03:39.316Z,9.03
2023-02-17T22:06:14.143Z,8.27
2023-02-17T22:08:40.609Z,12.27
2023-02-17T22:11:13.613Z,7.67
2023-02-17T22:13:40.018Z,11.20
2023-02-17T22:16:07.362Z,11.23
2023-02-17T22:18:33.995Z,11.40
2023-02-17T22:21:00.374Z,7.07
2023-02-17T22:23:27.359Z,8.03
2023-02-17T22:25:53.854Z,11.37
2023-02-17T22:28:22.004Z,6.27
2023-02-17T22:30:52.972Z,11.17
2023-02-17T22:33:19.482Z,7.10
2023-02-17T22:35:45.903Z,9.40
2023-02-17T22:38:12.481Z,10.80
2023-02-17T22:40:40.829Z,8.50
2023-02-17T22:43:07.303Z,8.03
2023-02-17T22:45:33.787Z,7.13
2023-02-17T22:48:00.227Z,9.40
2023-02-17T22:50:26.641Z,6.67
2023-02-17T22:52:53.193Z,9.90
2023-02-17T22:55:19.668Z,7.63
2023-02-17T22:57:47.278Z,7.67
2023-02-17T23:00:14.544Z,8.80
2023-02-17T23:02:40.916Z,7.93
2023-02-17T23:05:07.504Z,7.10
2023-02-17T23:07:33.908Z,6.37
2023-02-17T23:10:03.644Z,9.00
2023-02-17T23:12:30.316Z,7.33
2023-02-17T23:14:56.753Z,7.23
2023-02-17T23:17:24.822Z,10.97
2023-02-17T23:19:51.302Z,6.57
2023-02-17T23:22:18.996Z,9.67
2023-02-17T23:24:47.494Z,11.97
2023-02-17T23:27:14.577Z,7.77
2023-02-17T23:29:41.837Z,9.07
2023-02-17T23:32:08.485Z,7.37
2023-02-17T23:34:34.929Z,8.37
2023-02-17T23:37:01.718Z,10.23
2023-02-17T23:39:28.118Z,7.77
2023-02-17T23:41:54.567Z,8.60
2023-02-17T23:44:21.057Z,8.50
2023-02-17T23:46:47.605Z,6.80
2023-02-17T23:49:16.149Z,8.50
2023-02-17T23:51:42.937Z,8.37
2023-02-17T23:54:09.442Z,6.37
2023-02-17T23:56:37.011Z,6.97
2023-02-17T23:59:03.769Z,13.07
